LIBP Airport Information

Runway Information
Runway 04 Length 7933 ft width 148 ft
Elevation 46 ft Threshold 344 ft Heading 38
Runway 22 Length 7933 ft Width 148 ft
Elevation 27 ft Threshold 617 ft Heading 218
Airport Frequencies
Type APP Name APP Frequency 120.05 MHZ
Type TWR Name TWR Frequency 118.45 MHZ
Airport Navaids
Type VOR-DME Name Pescara Frequency 115900 KHZ
Airport Weather Information & NOTAM
ADDS - METARS form results

(0441 UTC 20 January 2021)
Data provider http://aviationweather.gov/metar/data/
 
METAR text: LIBP 200420Z AUTO 21002KT 9999 NCD M02/M03 Q1023
Conditions at: LIBP (PESCARA , IT) observed 0420 UTC 20 January 2021
Temperature: -2.0°C (28°F)
Dewpoint: -3.0°C (27°F) [RH = 93%]
Pressure (altimeter): 30.21 inches Hg (1023.0 mb)
Winds: from the SSW (210 degrees) at 2 MPH (2 knots; 1.0 m/s)
Visibility: 6 or more miles (10+ km)
Ceiling: at least 12,000 feet AGL
Clouds: sky clear below 12,000 feet AGL
Weather: no significant weather observed at this time

METAR text: LIBP 200350Z AUTO VRB02KT 9999 NCD M01/M02 Q1023
Conditions at: LIBP (PESCARA , IT) observed 0350 UTC 20 January 2021
Temperature: -1.0°C (30°F)
Dewpoint: -2.0°C (28°F) [RH = 93%]
Pressure (altimeter): 30.21 inches Hg (1023.0 mb)
Winds: variable direction winds at 2 MPH (2 knots; 1.0 m/s)
Visibility: 6 or more miles (10+ km)
Ceiling: at least 12,000 feet AGL
Clouds: sky clear below 12,000 feet AGL
Weather: no significant weather observed at this time

Forecast for: LIBP (PESCARA , IT)
Text: TAF LIBP 192300Z 2000/2024 VRB06KT CAVOK
Forecast period: 0000 UTC 20 January 2021 to 0000 UTC 21 January 2021
Forecast type: FROM: standard forecast or significant change
Winds: variable direction winds at 7 MPH (6 knots; 3.1 m/s)
Visibility: 6 or more miles (10+ km)
Ceiling: unknown
Clouds: missing
Weather: NSW  (no significant weather)